KILE/ILE METAR and TAF weather

Enter ICAO airport designator
Station Type Date Time Source
KILE METAR 2022/01/26 20:56 UTC NOAA

KILE 262056Z AUTO 10005KT 10SM 11/M01 A3026 RMK AO2 SLP243 T01061011 56031 $


Station Type Date Time Source
KILE Decoded METAR 2022/01/26 20:56 UTC NOAA

Killeen, Skylark Field Airport, TX, United States (KILE) 31-05N 097-41W
Jan 26, 2022 - 03:56 PM EST / 2022.01.26 2056 UTC
Wind: from the E (100 degrees) at 6 MPH (5 KT):0
Visibility: 10 mile(s):0
Temperature: 51.1 F (10.6 C)
Dew Point: 30.0 F (-1.1 C)
Relative Humidity: 44%
Pressure (altimeter): 30.26 in. Hg (1024 hPa)
Pressure tendency: 0.09 inches (3.1 hPa) lower than three hours ago
ob: KILE 262056Z AUTO 10005KT 10SM 11/M01 A3026 RMK AO2 SLP243 T01061011 56031
cycle: 21

Station Type Date Time Source
KILE TAF UTC NOAA

Error!

Example: see airport list